createdAt,value
2022-12-17T00:03:37.290Z,8.92
2022-12-17T00:08:34.002Z,7.81
2022-12-17T00:13:30.311Z,7.81
2022-12-17T00:18:33.472Z,8.92
2022-12-17T00:23:30.727Z,9.18
2022-12-17T00:28:26.981Z,8.96
2022-12-17T00:33:23.269Z,9.05
2022-12-17T00:38:20.523Z,8.91
2022-12-17T00:43:16.812Z,8.6
2022-12-17T00:48:13.046Z,8.06
2022-12-17T00:53:09.267Z,7.98
2022-12-17T00:58:06.561Z,7.89
2022-12-17T01:03:04.955Z,8
2022-12-17T01:08:12.040Z,7.97
2022-12-17T01:13:08.310Z,8.25
2022-12-17T01:18:04.608Z,8.16
2022-12-17T01:23:00.824Z,7.45
2022-12-17T01:27:57.221Z,7.2
2022-12-17T01:33:00.301Z,6.79
2022-12-17T01:37:56.568Z,6.3
2022-12-17T01:42:52.827Z,5.97
2022-12-17T01:47:52.098Z,6.36
2022-12-17T01:52:47.395Z,6.3
2022-12-17T01:57:43.613Z,6.03
2022-12-17T02:02:40.097Z,6.15
2022-12-17T02:07:47.222Z,5.3
2022-12-17T02:12:47.347Z,5.15
2022-12-17T02:17:48.594Z,5.11
2022-12-17T02:22:55.832Z,4.87
2022-12-17T02:27:54.139Z,4.62
2022-12-17T02:32:52.319Z,4.59
2022-12-17T02:37:49.574Z,4.46
2022-12-17T02:42:47.838Z,4.59
2022-12-17T02:47:45.116Z,4.65
2022-12-17T02:52:44.362Z,4.52
2022-12-17T02:57:43.798Z,4.76
2022-12-17T03:02:41.031Z,4.56
2022-12-17T03:07:37.154Z,4.36
2022-12-17T03:12:33.418Z,4.52
2022-12-17T03:17:29.636Z,5.62
2022-12-17T03:22:28.897Z,5.57
2022-12-17T03:27:24.182Z,5.6
2022-12-17T03:32:20.461Z,5.36
2022-12-17T03:37:16.684Z,5.01
2022-12-17T03:42:12.916Z,5.48
2022-12-17T03:47:09.225Z,4.77
2022-12-17T03:52:05.481Z,4.81
2022-12-17T03:57:01.705Z,4.76
2022-12-17T04:01:58.117Z,4.5
2022-12-17T04:06:54.284Z,4.11
2022-12-17T04:11:49.526Z,3.84
2022-12-17T04:16:44.803Z,4.26
2022-12-17T04:21:41.002Z,4.37
2022-12-17T04:26:37.322Z,3.85
2022-12-17T04:31:33.606Z,3.62
2022-12-17T04:36:29.825Z,3.74
2022-12-17T04:41:25.095Z,3.72
2022-12-17T04:46:21.523Z,3.49
2022-12-17T04:51:17.627Z,3.74
2022-12-17T04:56:13.830Z,3.36
2022-12-17T05:01:10.129Z,3.4
2022-12-17T05:06:06.354Z,3.29
2022-12-17T05:11:01.612Z,3.33
2022-12-17T05:15:57.958Z,2.92
2022-12-17T05:26:03.389Z,2.92
2022-12-17T05:30:59.717Z,2.99
2022-12-17T05:35:58.900Z,2.83
2022-12-17T05:40:56.118Z,2.78
2022-12-17T05:45:52.427Z,2.56
2022-12-17T05:50:49.642Z,2.6
2022-12-17T05:55:47.882Z,2.46
2022-12-17T06:00:44.193Z,2.54
2022-12-17T06:05:39.437Z,2.59
2022-12-17T06:10:34.693Z,2.37
2022-12-17T06:15:29.956Z,2.24
2022-12-17T06:20:25.200Z,2.14
2022-12-17T06:25:21.487Z,2.16
2022-12-17T06:30:19.028Z,2.22
2022-12-17T06:35:14.007Z,2.17
2022-12-17T06:40:10.226Z,2.11
2022-12-17T06:45:07.519Z,2.08
2022-12-17T06:50:02.791Z,2.11
2022-12-17T06:54:59.046Z,2.14
2022-12-17T06:59:54.331Z,2.02
2022-12-17T07:04:50.542Z,2.1
2022-12-17T07:09:46.855Z,2.08
2022-12-17T07:14:43.080Z,2
2022-12-17T07:19:39.331Z,2
2022-12-17T07:24:38.617Z,2.02
2022-12-17T07:29:34.858Z,2.06
2022-12-17T07:34:31.087Z,1.91
2022-12-17T07:39:27.329Z,1.77
2022-12-17T07:44:23.626Z,1.79
2022-12-17T07:49:25.352Z,1.91
2022-12-17T07:54:22.138Z,1.89
2022-12-17T07:59:17.360Z,1.84
2022-12-17T08:04:13.663Z,1.87
2022-12-17T08:09:09.985Z,1.89
2022-12-17T08:14:06.148Z,1.78
2022-12-17T08:19:02.433Z,1.68
2022-12-17T08:23:58.707Z,1.79
2022-12-17T08:28:54.916Z,1.94
2022-12-17T08:33:51.202Z,1.88
2022-12-17T08:38:47.511Z,2.22
2022-12-17T08:43:43.724Z,2.43
2022-12-17T08:48:40.000Z,2.74
2022-12-17T08:53:36.829Z,2.75
2022-12-17T08:58:33.521Z,2.71
2022-12-17T09:03:29.862Z,2.81
2022-12-17T09:08:30.045Z,2.78
2022-12-17T09:13:25.259Z,2.71
2022-12-17T09:28:23.058Z,3.15
2022-12-17T09:33:19.270Z,2.69
2022-12-17T09:38:15.579Z,2.78
2022-12-17T09:43:22.756Z,2.89
2022-12-17T09:48:32.099Z,2.94
2022-12-17T09:53:32.243Z,2.64
2022-12-17T09:58:29.498Z,2.68
2022-12-17T10:03:26.875Z,2.8
2022-12-17T10:08:24.017Z,2.69
2022-12-17T10:13:22.313Z,2.88
2022-12-17T10:18:18.585Z,3.1
2022-12-17T10:23:22.787Z,3.32
2022-12-17T10:28:20.055Z,3.55
2022-12-17T10:33:26.301Z,3.51
2022-12-17T10:38:23.529Z,3.56
2022-12-17T10:43:23.781Z,4.16
2022-12-17T10:48:22.061Z,3.98
2022-12-17T10:53:20.308Z,3.92
2022-12-17T10:58:19.524Z,3.82
2022-12-17T11:03:23.870Z,4.01
2022-12-17T11:08:21.021Z,4.15
2022-12-17T11:13:24.308Z,4.06
2022-12-17T11:18:22.544Z,4.5
2022-12-17T11:23:20.795Z,3.97
2022-12-17T11:28:22.064Z,3.7
2022-12-17T11:33:28.274Z,3.68
2022-12-17T11:38:33.766Z,3.79
2022-12-17T11:43:34.722Z,3.44
2022-12-17T11:48:35.280Z,3.55
2022-12-17T11:53:46.246Z,3.47
2022-12-17T11:58:50.495Z,3.46
2022-12-17T12:03:58.745Z,3.66
2022-12-17T12:09:02.939Z,4.16
2022-12-17T12:14:05.319Z,4.93
2022-12-17T12:19:11.443Z,4.03
2022-12-17T12:24:19.607Z,3.69
2022-12-17T12:29:27.869Z,3.66
2022-12-17T12:34:30.124Z,3.37
2022-12-17T12:39:30.459Z,3.55
2022-12-17T12:44:34.625Z,3.54
2022-12-17T12:49:37.872Z,3.63
2022-12-17T12:54:53.049Z,3.64
2022-12-17T12:59:56.335Z,3.45
2022-12-17T13:05:00.530Z,3.41
2022-12-17T13:10:21.725Z,3.53
2022-12-17T13:15:27.857Z,3.74
2022-12-17T13:20:34.239Z,3.53
2022-12-17T13:25:46.535Z,3.55
2022-12-17T13:31:16.671Z,3.75
2022-12-17T13:36:23.834Z,3.79
2022-12-17T13:41:28.109Z,4.02
2022-12-17T13:46:27.536Z,3.86
2022-12-17T13:51:26.596Z,3.83
2022-12-17T13:56:24.821Z,3.62
2022-12-17T14:01:21.212Z,3.53
2022-12-17T14:06:17.360Z,3.64
2022-12-17T14:11:17.667Z,3.57
2022-12-17T14:16:17.904Z,3.65
2022-12-17T14:21:13.128Z,3.52
2022-12-17T14:26:11.404Z,3.36
2022-12-17T14:31:27.524Z,3.39
2022-12-17T14:36:23.857Z,3.45
2022-12-17T14:41:20.090Z,3.48
2022-12-17T14:46:22.416Z,3.57
2022-12-17T14:51:28.554Z,3.54
2022-12-17T14:56:28.856Z,3.39
2022-12-17T15:01:27.417Z,3.36
2022-12-17T15:06:25.343Z,3.43
2022-12-17T15:11:22.640Z,3.41
2022-12-17T15:16:18.866Z,3.39
2022-12-17T15:21:16.131Z,3.3
2022-12-17T15:26:12.392Z,3.33
2022-12-17T15:31:09.707Z,3.25
2022-12-17T15:36:06.882Z,3.19
2022-12-17T15:41:04.132Z,3.26
2022-12-17T15:46:00.472Z,3.03
2022-12-17T15:50:56.658Z,3.15
2022-12-17T15:55:58.940Z,3.12
2022-12-17T16:00:55.204Z,2.99
2022-12-17T16:05:51.445Z,2.7
2022-12-17T16:10:47.695Z,2.55
2022-12-17T16:15:44.187Z,2.31
2022-12-17T16:20:40.227Z,2.17
2022-12-17T16:25:35.479Z,2.2
2022-12-17T16:30:30.799Z,2.12
2022-12-17T16:35:26.998Z,2.12
2022-12-17T16:40:22.234Z,2.68
2022-12-17T16:45:18.513Z,2.57
2022-12-17T16:50:14.766Z,2.33
2022-12-17T16:55:11.044Z,2.29
2022-12-17T17:00:08.478Z,2.07
2022-12-17T17:05:05.566Z,2.2
2022-12-17T17:10:01.926Z,2.2
2022-12-17T17:14:58.037Z,1.95
2022-12-17T17:19:54.328Z,2.09
2022-12-17T17:24:51.580Z,2.26
2022-12-17T17:29:48.047Z,2.05
2022-12-17T17:34:45.274Z,2.02
2022-12-17T17:39:41.381Z,1.89
2022-12-17T17:44:38.646Z,1.89
2022-12-17T17:49:35.920Z,1.81
2022-12-17T17:54:33.161Z,1.88
2022-12-17T17:59:33.730Z,1.66
2022-12-17T18:04:31.629Z,1.81
2022-12-17T18:09:27.920Z,1.68
2022-12-17T18:14:25.158Z,1.77
2022-12-17T18:19:21.414Z,2.13
2022-12-17T18:24:18.703Z,1.89
2022-12-17T18:29:15.957Z,2.05
2022-12-17T18:34:14.328Z,2.07
2022-12-17T18:39:11.454Z,1.68
2022-12-17T18:44:07.871Z,1.78
2022-12-17T18:49:05.976Z,1.65
2022-12-17T18:54:03.581Z,1.57
2022-12-17T18:58:59.452Z,1.27
2022-12-17T19:03:55.744Z,1.18
2022-12-17T19:08:52.014Z,1.13
2022-12-17T19:13:53.240Z,1
2022-12-17T19:18:51.513Z,1
2022-12-17T19:23:48.750Z,1.08
2022-12-17T19:28:45.989Z,0.88
2022-12-17T19:33:42.272Z,0.89
2022-12-17T19:38:38.828Z,0.73
2022-12-17T19:43:34.823Z,0.62
2022-12-17T19:48:30.091Z,0.59
2022-12-17T19:53:27.560Z,0.6
2022-12-17T19:58:23.556Z,0.62
2022-12-17T20:03:19.878Z,0.83
2022-12-17T20:08:20.846Z,0.75
2022-12-17T20:13:18.359Z,0.65
2022-12-17T20:18:14.644Z,0.59
2022-12-17T20:23:10.848Z,0.37
2022-12-17T20:28:07.101Z,0.48
2022-12-17T20:33:06.374Z,0.34
2022-12-17T20:38:02.643Z,0.37
2022-12-17T20:42:58.899Z,0.54
2022-12-17T20:47:55.153Z,0.55
2022-12-17T20:52:51.420Z,0.36
2022-12-17T20:57:47.728Z,0.47
2022-12-17T21:02:43.985Z,0.13
2022-12-17T21:07:40.197Z,0.23
2022-12-17T21:12:36.434Z,0.32
2022-12-17T21:17:32.770Z,0.07
2022-12-17T21:22:28.962Z,0.07
2022-12-17T21:27:25.188Z,0
2022-12-17T21:32:26.532Z,0.13
2022-12-17T21:37:26.729Z,0.05
2022-12-17T21:42:22.973Z,0.48
2022-12-17T21:47:19.439Z,0.35
2022-12-17T21:52:15.481Z,0.38
2022-12-17T21:57:11.754Z,0.5
2022-12-17T22:02:10.083Z,0.23
2022-12-17T22:07:08.371Z,0.17
2022-12-17T22:12:08.918Z,0.96
2022-12-17T22:17:06.776Z,0.51
2022-12-17T22:22:04.087Z,-0.01
2022-12-17T22:27:00.393Z,-0.01
2022-12-17T22:31:56.594Z,0.52
2022-12-17T22:38:13.296Z,0.49
2022-12-17T22:47:24.265Z,-0.11
2022-12-17T22:52:20.658Z,0.26
2022-12-17T22:57:36.332Z,-0.14
2022-12-17T23:02:34.079Z,-0.11
2022-12-17T23:07:32.083Z,0.14
2022-12-17T23:12:28.469Z,-0.41
2022-12-17T23:17:26.725Z,-0.14
2022-12-17T23:22:23.042Z,-0.24
2022-12-17T23:27:19.250Z,-0.05
2022-12-17T23:32:16.543Z,-0.26
2022-12-17T23:37:12.762Z,-0.35
2022-12-17T23:42:09.021Z,-0.05
2022-12-17T23:47:05.314Z,-0.13
2022-12-17T23:52:01.546Z,0.11
2022-12-17T23:56:58.814Z,0.16
